createdAt,value
2023-03-03T00:01:01.606Z,30.90
2023-03-03T00:03:36.664Z,35.87
2023-03-03T00:06:12.597Z,30.87
2023-03-03T00:08:41.077Z,31.97
2023-03-03T00:11:15.597Z,32.10
2023-03-03T00:13:55.487Z,31.87
2023-03-03T00:16:43.586Z,29.57
2023-03-03T00:19:17.979Z,30.50
2023-03-03T00:21:57.651Z,30.40
2023-03-03T00:24:43.622Z,36.40
2023-03-03T00:27:36.610Z,31.33
2023-03-03T00:30:23.616Z,28.67
2023-03-03T00:33:02.611Z,30.27
2023-03-03T00:35:41.631Z,36.53
2023-03-03T00:38:23.621Z,31.37
2023-03-03T00:40:58.643Z,32.83
2023-03-03T00:43:34.317Z,29.63
2023-03-03T00:46:15.657Z,29.63
2023-03-03T00:48:50.601Z,29.57
2023-03-03T00:51:39.672Z,32.23
2023-03-03T00:54:13.930Z,35.10
2023-03-03T00:56:47.639Z,32.87
2023-03-03T00:59:14.931Z,35.50
2023-03-03T01:01:49.644Z,37.90
2023-03-03T01:04:23.615Z,38.93
2023-03-03T01:06:57.666Z,34.77
2023-03-03T01:09:25.104Z,41.47
2023-03-03T01:11:59.603Z,34.50
2023-03-03T01:14:33.674Z,30.17
2023-03-03T01:17:07.680Z,40.03
2023-03-03T01:19:35.129Z,33.63
2023-03-03T01:22:09.672Z,35.57
2023-03-03T01:24:43.629Z,35.87
2023-03-03T01:27:17.656Z,35.60
2023-03-03T01:29:45.637Z,38.37
2023-03-03T01:32:19.715Z,37.27
2023-03-03T01:34:47.200Z,39.47
2023-03-03T01:37:20.596Z,39.23
2023-03-03T01:40:01.637Z,41.70
2023-03-03T01:42:36.608Z,36.67
2023-03-03T01:45:28.290Z,41.07
2023-03-03T01:48:25.628Z,34.30
2023-03-03T01:50:57.670Z,41.50
2023-03-03T01:53:52.675Z,39.87
2023-03-03T01:56:27.617Z,36.03
2023-03-03T01:59:11.309Z,40.37
2023-03-03T02:01:45.678Z,45.30
2023-03-03T02:04:19.807Z,39.23
2023-03-03T02:07:00.606Z,39.93
2023-03-03T02:09:40.622Z,46.50
2023-03-03T02:12:19.651Z,40.37
2023-03-03T02:14:53.669Z,42.10
2023-03-03T02:17:28.600Z,43.37
2023-03-03T02:20:14.454Z,40.80
2023-03-03T02:23:06.614Z,37.73
2023-03-03T02:26:03.614Z,43.30
2023-03-03T02:28:40.612Z,48.27
2023-03-03T02:31:19.665Z,43.77
2023-03-03T02:33:56.642Z,45.60
2023-03-03T02:36:39.676Z,46.37
2023-03-03T02:39:24.752Z,52.77
2023-03-03T02:42:13.601Z,49.27
2023-03-03T02:44:47.675Z,49.40
2023-03-03T02:47:15.147Z,56.87
2023-03-03T02:49:49.622Z,46.80
2023-03-03T02:52:19.092Z,45.83
2023-03-03T02:54:52.680Z,48.00
2023-03-03T02:57:26.658Z,50.27
2023-03-03T03:00:00.650Z,49.87
2023-03-03T03:02:34.714Z,50.53
2023-03-03T03:05:09.043Z,46.63
2023-03-03T03:07:42.688Z,53.50
2023-03-03T03:10:11.296Z,52.00
2023-03-03T03:12:45.691Z,48.70
2023-03-03T03:15:19.636Z,47.27
2023-03-03T03:17:53.644Z,46.53
2023-03-03T03:20:21.146Z,47.97
2023-03-03T03:22:55.632Z,48.90
2023-03-03T03:25:23.203Z,48.10
2023-03-03T03:27:58.633Z,45.47
2023-03-03T03:30:26.330Z,48.13
2023-03-03T03:33:00.670Z,49.63
2023-03-03T03:35:28.217Z,47.97
2023-03-03T03:38:02.646Z,54.40
2023-03-03T03:40:30.064Z,50.90
2023-03-03T03:43:03.630Z,54.50
2023-03-03T03:45:31.169Z,55.57
2023-03-03T03:48:06.614Z,51.57
2023-03-03T03:50:40.643Z,51.63
2023-03-03T03:53:14.743Z,53.00
2023-03-03T03:55:42.122Z,51.90
2023-03-03T03:58:18.691Z,54.93
2023-03-03T04:00:53.650Z,50.47
2023-03-03T04:03:34.668Z,56.33
2023-03-03T04:06:08.609Z,54.40
2023-03-03T04:08:42.713Z,55.77
2023-03-03T04:11:16.654Z,53.87
2023-03-03T04:13:50.693Z,53.67
2023-03-03T04:16:18.107Z,52.50
2023-03-03T04:18:52.689Z,62.17
2023-03-03T04:21:26.616Z,56.93
2023-03-03T04:24:00.694Z,51.80
2023-03-03T04:26:35.671Z,51.87
2023-03-03T04:29:09.723Z,50.87
2023-03-03T04:31:37.147Z,49.10
2023-03-03T04:34:10.619Z,47.57
2023-03-03T04:36:44.706Z,45.67
2023-03-03T04:39:18.703Z,50.07
2023-03-03T04:41:46.159Z,50.53
2023-03-03T04:44:19.668Z,47.00
2023-03-03T04:46:53.674Z,43.23
2023-03-03T04:49:21.948Z,40.60
2023-03-03T04:51:49.942Z,42.67
2023-03-03T04:54:23.705Z,44.10
2023-03-03T04:56:57.644Z,43.53
2023-03-03T04:59:31.652Z,42.00
2023-03-03T05:02:19.659Z,46.10
2023-03-03T05:04:53.706Z,43.13
2023-03-03T05:07:27.678Z,40.60
2023-03-03T05:09:54.941Z,42.33
2023-03-03T05:12:28.661Z,42.80
2023-03-03T05:15:02.954Z,43.40
2023-03-03T05:17:36.640Z,40.70
2023-03-03T05:20:12.703Z,44.07
2023-03-03T05:22:46.759Z,41.73
2023-03-03T05:25:20.664Z,39.33
2023-03-03T05:27:47.948Z,45.13
2023-03-03T05:30:22.662Z,40.20
2023-03-03T05:32:56.663Z,41.70
2023-03-03T05:35:30.701Z,38.13
2023-03-03T05:38:07.657Z,43.40
2023-03-03T05:40:41.745Z,44.33
2023-03-03T05:43:15.704Z,37.77
2023-03-03T05:45:43.068Z,36.83
2023-03-03T05:48:16.698Z,48.07
2023-03-03T05:50:50.659Z,44.03
2023-03-03T05:53:24.672Z,42.27
2023-03-03T05:55:52.548Z,36.17
2023-03-03T05:58:26.620Z,41.73
2023-03-03T06:01:00.680Z,41.20
2023-03-03T06:03:34.741Z,40.53
2023-03-03T06:06:15.711Z,39.40
2023-03-03T06:08:43.606Z,37.03
2023-03-03T06:11:19.681Z,42.23
2023-03-03T06:13:53.709Z,31.43
2023-03-03T06:16:21.389Z,33.50
2023-03-03T06:18:55.696Z,34.27
2023-03-03T06:21:23.219Z,35.70
2023-03-03T06:23:57.687Z,34.47
2023-03-03T06:26:25.396Z,40.27
2023-03-03T06:29:01.740Z,38.03
2023-03-03T06:31:29.473Z,40.57
2023-03-03T06:34:03.669Z,38.67
2023-03-03T06:36:31.218Z,48.17
2023-03-03T06:39:05.727Z,40.57
2023-03-03T06:41:33.397Z,46.10
2023-03-03T06:44:07.671Z,39.20
2023-03-03T06:46:35.289Z,44.37
2023-03-03T06:49:09.691Z,40.00
2023-03-03T06:51:40.011Z,42.30
2023-03-03T06:54:27.748Z,44.37
2023-03-03T06:57:01.026Z,46.73
2023-03-03T06:59:35.677Z,43.37
2023-03-03T07:02:17.732Z,51.27
2023-03-03T07:04:59.771Z,40.77
2023-03-03T07:07:27.612Z,44.67
2023-03-03T07:10:03.638Z,43.50
2023-03-03T07:12:37.707Z,44.13
2023-03-03T07:15:31.956Z,46.77
2023-03-03T07:18:06.689Z,49.50
2023-03-03T07:20:44.675Z,41.63
2023-03-03T07:23:24.376Z,34.37
2023-03-03T07:25:58.659Z,35.73
2023-03-03T07:28:32.939Z,41.17
2023-03-03T07:31:06.782Z,37.23
2023-03-03T07:33:51.681Z,41.70
2023-03-03T07:36:36.668Z,42.23
2023-03-03T07:39:37.213Z,36.13
2023-03-03T07:42:27.863Z,42.60
2023-03-03T07:45:04.675Z,42.07
2023-03-03T07:47:37.152Z,36.47
2023-03-03T07:50:25.760Z,35.00
2023-03-03T07:53:06.703Z,38.20
2023-03-03T07:55:35.664Z,32.93
2023-03-03T07:58:31.704Z,33.10
2023-03-03T08:01:46.723Z,37.93
2023-03-03T08:04:35.439Z,38.20
2023-03-03T08:07:09.737Z,41.50
2023-03-03T08:09:42.729Z,41.10
2023-03-03T08:12:16.711Z,40.83
2023-03-03T08:14:44.255Z,37.77
2023-03-03T08:17:37.740Z,35.10
2023-03-03T08:20:37.716Z,35.57
2023-03-03T08:23:11.663Z,40.30
2023-03-03T08:25:46.664Z,41.20
2023-03-03T08:28:20.655Z,41.07
2023-03-03T08:31:08.949Z,46.47
2023-03-03T08:33:48.735Z,42.60
2023-03-03T08:36:16.257Z,35.07
2023-03-03T08:38:50.732Z,35.83
2023-03-03T08:41:18.178Z,35.60
2023-03-03T08:43:52.687Z,32.90
2023-03-03T08:46:20.253Z,30.63
2023-03-03T08:48:54.753Z,34.40
2023-03-03T08:51:22.243Z,35.73
2023-03-03T08:53:56.669Z,31.83
2023-03-03T08:56:30.690Z,37.20
2023-03-03T08:59:04.694Z,34.17
2023-03-03T09:01:39.734Z,34.57
2023-03-03T09:04:20.732Z,36.47
2023-03-03T09:06:54.741Z,37.20
2023-03-03T09:09:28.703Z,30.37
2023-03-03T09:12:06.685Z,31.20
2023-03-03T09:14:40.692Z,29.63
2023-03-03T09:17:23.054Z,30.60
2023-03-03T09:19:57.726Z,28.35
2023-03-03T09:22:27.979Z,31.33
2023-03-03T09:25:05.706Z,31.75
2023-03-03T09:27:37.976Z,30.25
2023-03-03T09:30:45.701Z,29.40
2023-03-03T09:33:31.691Z,25.98
2023-03-03T09:36:22.581Z,30.85
2023-03-03T09:38:56.705Z,29.55
2023-03-03T09:41:29.986Z,32.35
2023-03-03T09:44:23.717Z,31.80
2023-03-03T09:47:30.725Z,30.02
2023-03-03T09:50:31.717Z,28.05
2023-03-03T09:53:14.763Z,29.58
2023-03-03T09:56:27.791Z,33.15
2023-03-03T09:59:34.676Z,29.95
2023-03-03T10:02:57.815Z,26.77
2023-03-03T10:05:44.734Z,31.95
2023-03-03T10:09:01.718Z,26.10
2023-03-03T10:11:40.660Z,28.08
2023-03-03T10:14:37.736Z,31.83
2023-03-03T10:17:29.695Z,27.45
2023-03-03T10:20:49.199Z,27.85
2023-03-03T10:23:40.697Z,31.67
2023-03-03T10:26:45.237Z,27.75
2023-03-03T10:29:49.973Z,26.98
2023-03-03T10:32:28.689Z,28.83
2023-03-03T10:35:23.830Z,27.92
2023-03-03T10:38:06.688Z,27.58
2023-03-03T10:40:59.724Z,25.15
2023-03-03T10:43:47.716Z,28.83
2023-03-03T10:46:47.334Z,25.67
2023-03-03T10:49:45.717Z,25.98
2023-03-03T10:52:34.072Z,29.08
2023-03-03T10:55:36.438Z,28.83
2023-03-03T10:58:29.705Z,29.15
2023-03-03T11:01:28.820Z,30.60
2023-03-03T11:04:30.778Z,31.00
2023-03-03T11:07:26.583Z,27.70
2023-03-03T11:10:28.740Z,28.30
2023-03-03T11:13:11.250Z,26.42
2023-03-03T11:16:09.984Z,29.05
2023-03-03T11:19:01.399Z,25.23
2023-03-03T11:21:45.738Z,31.63
2023-03-03T11:24:38.807Z,28.42
2023-03-03T11:27:30.707Z,23.73
2023-03-03T11:30:28.735Z,26.70
2023-03-03T11:33:26.736Z,27.13
2023-03-03T11:36:35.210Z,27.58
2023-03-03T11:39:11.766Z,29.33
2023-03-03T11:41:48.061Z,27.98
2023-03-03T11:44:59.761Z,27.08
2023-03-03T11:48:04.746Z,28.00
2023-03-03T11:50:47.762Z,27.88
2023-03-03T11:53:57.769Z,25.52
2023-03-03T11:56:34.202Z,29.55
2023-03-03T11:59:10.831Z,27.83
2023-03-03T12:01:49.154Z,31.00
2023-03-03T12:04:43.728Z,33.17
2023-03-03T12:07:43.766Z,27.83
2023-03-03T12:10:20.775Z,26.42
2023-03-03T12:13:09.738Z,28.85
2023-03-03T12:16:12.312Z,31.65
2023-03-03T12:22:05.771Z,32.90
2023-03-03T12:25:00.766Z,26.75
2023-03-03T12:27:42.492Z,27.92
2023-03-03T12:30:30.761Z,24.85
2023-03-03T12:33:17.743Z,30.45
2023-03-03T12:36:00.748Z,26.27
2023-03-03T12:38:46.640Z,26.30
2023-03-03T12:41:29.760Z,25.20
2023-03-03T12:44:05.260Z,28.13
2023-03-03T12:47:26.758Z,26.23
2023-03-03T12:50:19.914Z,26.05
2023-03-03T12:53:18.780Z,25.70
2023-03-03T12:55:59.325Z,27.27
2023-03-03T12:59:02.786Z,28.05
2023-03-03T13:02:01.772Z,28.27
2023-03-03T13:04:59.283Z,28.67
2023-03-03T13:07:54.733Z,25.30
2023-03-03T13:10:42.813Z,28.70
2023-03-03T13:13:59.750Z,26.15
2023-03-03T13:16:47.772Z,25.73
2023-03-03T13:19:32.749Z,26.83
2023-03-03T13:22:08.582Z,30.05
2023-03-03T13:25:00.738Z,27.75
2023-03-03T13:27:46.748Z,30.02
2023-03-03T13:30:22.981Z,28.48
2023-03-03T13:33:28.788Z,27.80
2023-03-03T13:36:04.831Z,30.27
2023-03-03T13:38:45.739Z,32.00
2023-03-03T13:41:40.074Z,31.25
2023-03-03T13:44:21.845Z,25.73
2023-03-03T13:47:11.753Z,26.98
2023-03-03T13:50:19.771Z,25.67
2023-03-03T13:53:09.219Z,30.98
2023-03-03T13:55:50.850Z,27.75
2023-03-03T13:58:25.742Z,28.75
2023-03-03T14:01:08.855Z,26.83
2023-03-03T14:04:43.800Z,28.42
2023-03-03T14:07:22.888Z,32.17
2023-03-03T14:10:08.759Z,27.15
2023-03-03T14:12:58.040Z,26.50
2023-03-03T14:15:37.825Z,24.45
2023-03-03T14:18:14.023Z,29.30
2023-03-03T14:20:53.813Z,35.70
2023-03-03T14:23:33.740Z,33.80
2023-03-03T14:26:16.820Z,28.98
2023-03-03T14:28:53.801Z,35.70
2023-03-03T14:31:31.093Z,28.30
2023-03-03T14:34:28.757Z,28.25
2023-03-03T14:37:25.874Z,32.15
2023-03-03T14:40:23.797Z,29.10
2023-03-03T14:43:01.764Z,33.22
2023-03-03T14:45:36.473Z,30.88
2023-03-03T14:48:30.483Z,29.73
2023-03-03T14:51:42.016Z,29.60
2023-03-03T14:54:21.788Z,27.50
2023-03-03T14:57:18.781Z,30.85
2023-03-03T14:59:58.028Z,31.88
2023-03-03T15:02:38.782Z,30.02
2023-03-03T15:05:31.272Z,31.17
2023-03-03T15:08:11.778Z,27.85
2023-03-03T15:10:44.997Z,27.65
2023-03-03T15:13:27.785Z,29.92
2023-03-03T15:16:10.805Z,28.63
2023-03-03T15:19:20.811Z,33.78
2023-03-03T15:22:28.785Z,29.80
2023-03-03T15:25:20.913Z,30.10
2023-03-03T15:28:14.847Z,33.55
2023-03-03T15:30:52.842Z,29.63
2023-03-03T15:33:26.814Z,33.80
2023-03-03T15:36:14.770Z,28.65
2023-03-03T15:39:03.949Z,27.05
2023-03-03T15:41:51.884Z,31.27
2023-03-03T15:44:45.842Z,32.70
2023-03-03T15:47:40.792Z,37.90
2023-03-03T15:50:48.822Z,32.60
2023-03-03T15:53:23.894Z,32.13
2023-03-03T15:56:21.821Z,35.95
2023-03-03T15:58:52.245Z,34.00
2023-03-03T16:01:39.834Z,34.45
2023-03-03T16:04:28.806Z,35.28
2023-03-03T16:07:25.796Z,31.00
2023-03-03T16:10:14.472Z,33.58
2023-03-03T16:13:01.788Z,27.90
2023-03-03T16:15:37.788Z,34.05
2023-03-03T16:18:52.816Z,32.55
2023-03-03T16:21:44.816Z,31.80
2023-03-03T16:24:50.840Z,31.27
2023-03-03T16:27:58.824Z,31.43
2023-03-03T16:30:41.892Z,33.60
2023-03-03T16:33:27.052Z,32.90
2023-03-03T16:36:08.823Z,35.53
2023-03-03T16:38:44.824Z,32.40
2023-03-03T16:41:33.976Z,35.37
2023-03-03T16:44:38.073Z,34.33
2023-03-03T16:47:42.297Z,34.77
2023-03-03T16:50:43.851Z,35.73
2023-03-03T16:53:32.248Z,55.60
2023-03-03T16:56:20.775Z,59.13
2023-03-03T16:59:27.840Z,45.10
2023-03-03T17:02:23.338Z,77.03
2023-03-03T17:05:19.828Z,41.50
2023-03-03T17:08:07.802Z,43.13
2023-03-03T17:10:42.872Z,39.63
2023-03-03T17:13:37.809Z,38.50
2023-03-03T17:16:37.022Z,43.63
2023-03-03T17:19:50.787Z,41.77
2023-03-03T17:22:39.533Z,37.00
2023-03-03T17:25:27.805Z,46.97
2023-03-03T17:28:17.821Z,44.00
2023-03-03T17:31:01.974Z,36.93
2023-03-03T17:33:46.814Z,36.90
2023-03-03T17:36:28.796Z,37.50
2023-03-03T17:39:02.845Z,47.33
2023-03-03T17:41:58.800Z,38.13
2023-03-03T17:44:46.835Z,43.40
2023-03-03T17:47:59.933Z,44.17
2023-03-03T17:50:33.786Z,40.83
2023-03-03T17:53:39.056Z,46.70
2023-03-03T17:56:34.830Z,46.23
2023-03-03T17:59:20.887Z,42.83
2023-03-03T18:02:19.808Z,48.07
2023-03-03T18:05:15.823Z,46.17
2023-03-03T18:08:03.882Z,45.63
2023-03-03T18:11:03.329Z,55.83
2023-03-03T18:14:06.899Z,46.30
2023-03-03T18:16:40.511Z,45.67
2023-03-03T18:19:52.873Z,41.83
2023-03-03T18:22:48.191Z,47.17
2023-03-03T18:25:27.844Z,43.97
2023-03-03T18:28:07.873Z,43.70
2023-03-03T18:31:06.891Z,40.60
2023-03-03T18:34:08.567Z,42.03
2023-03-03T18:36:45.991Z,47.83
2023-03-03T18:39:21.828Z,49.90
2023-03-03T18:42:10.141Z,51.30
2023-03-03T18:44:43.925Z,54.13
2023-03-03T18:47:21.815Z,51.93
2023-03-03T18:50:35.817Z,46.47
2023-03-03T18:53:23.040Z,45.90
2023-03-03T18:56:08.825Z,45.70
2023-03-03T18:58:37.553Z,45.37
2023-03-03T19:01:42.960Z,42.90
2023-03-03T19:04:26.850Z,40.80
2023-03-03T19:07:21.895Z,54.63
2023-03-03T19:09:57.095Z,52.07
2023-03-03T19:13:01.815Z,46.23
2023-03-03T19:15:34.528Z,47.53
2023-03-03T19:18:28.836Z,43.87
2023-03-03T19:20:56.312Z,51.33
2023-03-03T19:23:59.895Z,45.50
2023-03-03T19:26:30.279Z,44.00
2023-03-03T19:29:09.840Z,44.83
2023-03-03T19:32:16.484Z,41.30
2023-03-03T19:35:00.833Z,46.53
2023-03-03T19:37:46.924Z,49.33
2023-03-03T19:40:40.818Z,45.30
2023-03-03T19:43:33.587Z,46.13
2023-03-03T19:46:36.923Z,43.43
2023-03-03T19:49:39.742Z,47.53
2023-03-03T19:52:39.843Z,50.67
2023-03-03T19:55:24.850Z,44.20
2023-03-03T19:58:25.116Z,46.17
2023-03-03T20:01:20.857Z,46.47
2023-03-03T20:04:09.906Z,41.80
2023-03-03T20:07:33.881Z,42.10
2023-03-03T20:10:14.811Z,43.33
2023-03-03T20:13:00.843Z,43.80
2023-03-03T20:15:56.583Z,40.27
2023-03-03T20:19:14.823Z,43.80
2023-03-03T20:22:09.100Z,35.40
2023-03-03T20:25:14.839Z,39.63
2023-03-03T20:28:06.853Z,37.77
2023-03-03T20:30:43.430Z,37.23
2023-03-03T20:33:45.814Z,39.87
2023-03-03T20:36:28.022Z,38.50
2023-03-03T20:39:15.860Z,36.93
2023-03-03T20:41:59.957Z,40.50
2023-03-03T20:44:34.809Z,33.50
2023-03-03T20:47:32.974Z,37.87
2023-03-03T20:50:23.000Z,35.30
2023-03-03T20:53:17.817Z,34.83
2023-03-03T20:56:17.926Z,50.50
2023-03-03T20:59:00.493Z,36.53
2023-03-03T21:01:53.854Z,36.43
2023-03-03T21:04:38.348Z,38.17
2023-03-03T21:07:31.868Z,35.03
2023-03-03T21:10:21.844Z,40.10
2023-03-03T21:12:55.861Z,36.70
2023-03-03T21:15:36.885Z,33.60
2023-03-03T21:18:22.429Z,37.27
2023-03-03T21:20:56.919Z,36.37
2023-03-03T21:23:24.635Z,41.60
2023-03-03T21:26:04.889Z,39.47
2023-03-03T21:28:34.418Z,37.50
2023-03-03T21:31:12.821Z,38.70
2023-03-03T21:34:09.485Z,42.23
2023-03-03T21:36:36.892Z,41.00
2023-03-03T21:39:28.913Z,41.53
2023-03-03T21:42:07.692Z,43.17
2023-03-03T21:44:55.890Z,42.70
2023-03-03T21:47:27.685Z,43.73
2023-03-03T21:50:18.888Z,43.10
2023-03-03T21:52:59.821Z,44.37
2023-03-03T21:55:33.878Z,40.23
2023-03-03T21:58:07.836Z,40.57
2023-03-03T22:00:35.185Z,41.90
2023-03-03T22:03:08.881Z,42.43
2023-03-03T22:05:42.881Z,38.37
2023-03-03T22:08:10.351Z,35.63
2023-03-03T22:10:43.855Z,41.43
2023-03-03T22:13:12.055Z,38.80
2023-03-03T22:15:45.879Z,36.80
2023-03-03T22:18:13.728Z,43.17
2023-03-03T22:20:41.290Z,38.67
2023-03-03T22:23:14.917Z,37.87
2023-03-03T22:25:42.614Z,39.13
2023-03-03T22:28:16.809Z,37.10
2023-03-03T22:30:50.881Z,35.60
2023-03-03T22:33:18.266Z,39.73
2023-03-03T22:35:51.879Z,35.53
2023-03-03T22:38:19.336Z,34.80
2023-03-03T22:40:52.838Z,37.93
2023-03-03T22:43:20.270Z,44.87
2023-03-03T22:45:53.931Z,38.33
2023-03-03T22:48:29.869Z,39.17
2023-03-03T22:51:03.869Z,38.83
2023-03-03T22:53:37.919Z,38.07
2023-03-03T22:56:05.803Z,35.17
2023-03-03T22:58:39.887Z,38.07
2023-03-03T23:01:07.272Z,41.37
2023-03-03T23:03:41.904Z,34.97
2023-03-03T23:06:22.871Z,40.93
2023-03-03T23:08:56.902Z,34.37
2023-03-03T23:11:24.794Z,37.10
2023-03-03T23:13:58.886Z,40.53
2023-03-03T23:16:26.959Z,35.47
2023-03-03T23:19:00.906Z,37.40
2023-03-03T23:21:28.345Z,35.67
2023-03-03T23:24:01.876Z,38.60
2023-03-03T23:26:35.820Z,35.63
2023-03-03T23:29:09.868Z,37.23
2023-03-03T23:31:44.880Z,40.37
2023-03-03T23:34:12.969Z,39.53
2023-03-03T23:36:46.850Z,38.67
2023-03-03T23:39:20.857Z,36.70
2023-03-03T23:41:48.159Z,35.00
2023-03-03T23:44:21.899Z,41.03
2023-03-03T23:46:49.433Z,36.07
2023-03-03T23:49:23.910Z,42.97
2023-03-03T23:51:57.852Z,43.47
2023-03-03T23:54:31.923Z,41.07
2023-03-03T23:57:05.842Z,43.00
2023-03-03T23:59:33.200Z,46.40
